Rural Valley, Pennsylvania
Current Conditions -  °F | °C
As of 6:55 PM on Saturday 22 Nov 2014 (Local Time) from KIDI Reporting Station
Overcast Overcast  
Wind Chill: 39°   Ceiling: 6000
Heat Index: 43°   Visibility: 10mi
Dew Point: 30°   Wind: 6mph
Humidity: 61%   Direction: 230°SW
Pressure: 30.18"   Gusts: NA
Location:  40.8°N, 79.31°W
Report Text: KIDI 222355Z AUTO 23005KT 10SM FEW036 OVC060 06/M01 A3018 RMK A01
Loading
Personal Weather Stations






























Interactive Weather Map New forecast layout! Learn more

10-Day Weather Forecast

Advertisements
Track Severe Weather on mobile